sensor_id;sensor_type;location;lat;lon;timestamp;temperature;humidity
5846;DHT22;2949;50.778;7.094;2023-04-28T00:00:44;12.00;99.90
5846;DHT22;2949;50.778;7.094;2023-04-28T00:03:12;12.00;99.90
5846;DHT22;2949;50.778;7.094;2023-04-28T00:05:37;12.00;99.90
5846;DHT22;2949;50.778;7.094;2023-04-28T00:08:03;12.00;99.90
5846;DHT22;2949;50.778;7.094;2023-04-28T00:10:29;12.00;99.90
5846;DHT22;2949;50.778;7.094;2023-04-28T00:12:55;12.00;99.90
5846;DHT22;2949;50.778;7.094;2023-04-28T00:15:21;12.00;99.90
5846;DHT22;2949;50.778;7.094;2023-04-28T00:17:46;12.00;99.90
5846;DHT22;2949;50.778;7.094;2023-04-28T00:20:12;12.00;99.90
5846;DHT22;2949;50.778;7.094;2023-04-28T00:22:37;11.90;99.90
5846;DHT22;2949;50.778;7.094;2023-04-28T00:25:03;11.90;99.90
5846;DHT22;2949;50.778;7.094;2023-04-28T00:27:29;11.80;99.90
5846;DHT22;2949;50.778;7.094;2023-04-28T00:29:55;11.80;99.90
5846;DHT22;2949;50.778;7.094;2023-04-28T00:32:20;11.90;99.90
5846;DHT22;2949;50.778;7.094;2023-04-28T00:34:46;11.90;99.90
5846;DHT22;2949;50.778;7.094;2023-04-28T00:37:11;11.90;99.90
5846;DHT22;2949;50.778;7.094;2023-04-28T00:39:37;11.90;99.90
5846;DHT22;2949;50.778;7.094;2023-04-28T00:42:03;11.90;99.90
5846;DHT22;2949;50.778;7.094;2023-04-28T00:44:29;11.90;99.90
5846;DHT22;2949;50.778;7.094;2023-04-28T00:46:55;12.00;99.90
5846;DHT22;2949;50.778;7.094;2023-04-28T00:49:20;12.00;99.90
5846;DHT22;2949;50.778;7.094;2023-04-28T00:51:46;12.10;99.90
5846;DHT22;2949;50.778;7.094;2023-04-28T00:54:12;12.10;99.90
5846;DHT22;2949;50.778;7.094;2023-04-28T00:56:38;12.10;99.90
5846;DHT22;2949;50.778;7.094;2023-04-28T00:59:04;12.10;99.90
5846;DHT22;2949;50.778;7.094;2023-04-28T01:01:30;12.10;99.90
5846;DHT22;2949;50.778;7.094;2023-04-28T01:03:56;12.10;99.90
5846;DHT22;2949;50.778;7.094;2023-04-28T01:06:22;12.10;99.90
5846;DHT22;2949;50.778;7.094;2023-04-28T01:08:48;12.20;99.90
5846;DHT22;2949;50.778;7.094;2023-04-28T01:11:15;12.20;99.90
5846;DHT22;2949;50.778;7.094;2023-04-28T01:13:41;12.20;99.90
5846;DHT22;2949;50.778;7.094;2023-04-28T01:16:06;12.20;99.90
5846;DHT22;2949;50.778;7.094;2023-04-28T01:18:32;12.30;99.90
5846;DHT22;2949;50.778;7.094;2023-04-28T01:20:58;12.30;99.90
5846;DHT22;2949;50.778;7.094;2023-04-28T01:23:24;12.30;99.90
5846;DHT22;2949;50.778;7.094;2023-04-28T01:25:50;12.30;99.90
5846;DHT22;2949;50.778;7.094;2023-04-28T01:28:15;12.30;99.90
5846;DHT22;2949;50.778;7.094;2023-04-28T01:30:41;12.20;99.90
5846;DHT22;2949;50.778;7.094;2023-04-28T01:33:06;12.20;99.90
5846;DHT22;2949;50.778;7.094;2023-04-28T01:35:32;12.10;99.90
5846;DHT22;2949;50.778;7.094;2023-04-28T01:37:57;12.20;99.90
5846;DHT22;2949;50.778;7.094;2023-04-28T01:40:23;12.20;99.90
5846;DHT22;2949;50.778;7.094;2023-04-28T01:42:49;12.10;99.90
5846;DHT22;2949;50.778;7.094;2023-04-28T01:45:15;12.00;99.90
5846;DHT22;2949;50.778;7.094;2023-04-28T01:47:40;11.90;99.90
5846;DHT22;2949;50.778;7.094;2023-04-28T01:50:06;11.90;99.90
5846;DHT22;2949;50.778;7.094;2023-04-28T01:52:32;11.90;99.90
5846;DHT22;2949;50.778;7.094;2023-04-28T01:54:57;11.90;99.90
5846;DHT22;2949;50.778;7.094;2023-04-28T01:57:23;11.90;99.90
5846;DHT22;2949;50.778;7.094;2023-04-28T01:59:48;11.90;99.90
5846;DHT22;2949;50.778;7.094;2023-04-28T02:02:14;11.80;99.90
5846;DHT22;2949;50.778;7.094;2023-04-28T02:04:39;11.80;99.90
5846;DHT22;2949;50.778;7.094;2023-04-28T02:07:05;11.70;99.90
5846;DHT22;2949;50.778;7.094;2023-04-28T02:09:32;11.70;99.90
5846;DHT22;2949;50.778;7.094;2023-04-28T02:11:58;11.70;99.90
5846;DHT22;2949;50.778;7.094;2023-04-28T02:14:27;11.60;99.90
5846;DHT22;2949;50.778;7.094;2023-04-28T02:16:53;11.50;99.90
5846;DHT22;2949;50.778;7.094;2023-04-28T02:19:18;11.40;99.90
5846;DHT22;2949;50.778;7.094;2023-04-28T02:21:44;11.30;99.90
5846;DHT22;2949;50.778;7.094;2023-04-28T02:24:09;11.40;99.90
5846;DHT22;2949;50.778;7.094;2023-04-28T02:26:35;11.50;99.90
5846;DHT22;2949;50.778;7.094;2023-04-28T02:29:00;11.50;99.90
5846;DHT22;2949;50.778;7.094;2023-04-28T02:31:28;11.40;99.90
5846;DHT22;2949;50.778;7.094;2023-04-28T02:33:54;11.50;99.90
5846;DHT22;2949;50.778;7.094;2023-04-28T02:36:20;11.50;99.90
5846;DHT22;2949;50.778;7.094;2023-04-28T02:38:46;11.50;99.90
5846;DHT22;2949;50.778;7.094;2023-04-28T02:41:11;11.50;99.90
5846;DHT22;2949;50.778;7.094;2023-04-28T02:43:39;11.50;99.90
5846;DHT22;2949;50.778;7.094;2023-04-28T02:46:05;11.30;99.90
5846;DHT22;2949;50.778;7.094;2023-04-28T02:48:31;11.30;99.90
5846;DHT22;2949;50.778;7.094;2023-04-28T02:50:57;11.20;99.90
5846;DHT22;2949;50.778;7.094;2023-04-28T02:53:23;11.20;99.90
5846;DHT22;2949;50.778;7.094;2023-04-28T02:55:49;11.20;99.90
5846;DHT22;2949;50.778;7.094;2023-04-28T02:58:14;11.20;99.90
5846;DHT22;2949;50.778;7.094;2023-04-28T03:00:42;11.20;99.90
5846;DHT22;2949;50.778;7.094;2023-04-28T03:03:07;11.20;99.90
5846;DHT22;2949;50.778;7.094;2023-04-28T03:05:33;11.10;99.90
5846;DHT22;2949;50.778;7.094;2023-04-28T03:07:58;11.00;99.90
5846;DHT22;2949;50.778;7.094;2023-04-28T03:10:24;11.00;99.90
5846;DHT22;2949;50.778;7.094;2023-04-28T03:12:50;11.00;99.90
5846;DHT22;2949;50.778;7.094;2023-04-28T03:15:15;11.00;99.90
5846;DHT22;2949;50.778;7.094;2023-04-28T03:17:41;11.00;99.90
5846;DHT22;2949;50.778;7.094;2023-04-28T03:20:08;11.00;99.90
5846;DHT22;2949;50.778;7.094;2023-04-28T03:22:34;11.00;99.90
5846;DHT22;2949;50.778;7.094;2023-04-28T03:24:59;11.00;99.90
5846;DHT22;2949;50.778;7.094;2023-04-28T03:27:26;11.00;99.90
5846;DHT22;2949;50.778;7.094;2023-04-28T03:29:51;10.90;99.90
5846;DHT22;2949;50.778;7.094;2023-04-28T03:32:17;10.90;99.90
5846;DHT22;2949;50.778;7.094;2023-04-28T03:34:42;10.90;99.90
5846;DHT22;2949;50.778;7.094;2023-04-28T03:37:08;11.00;99.90
5846;DHT22;2949;50.778;7.094;2023-04-28T03:39:33;11.00;99.90
5846;DHT22;2949;50.778;7.094;2023-04-28T03:41:59;10.80;99.90
5846;DHT22;2949;50.778;7.094;2023-04-28T03:44:25;10.80;99.90
5846;DHT22;2949;50.778;7.094;2023-04-28T03:46:51;10.70;99.90
5846;DHT22;2949;50.778;7.094;2023-04-28T03:49:16;10.60;99.90
5846;DHT22;2949;50.778;7.094;2023-04-28T03:51:42;10.60;99.90
5846;DHT22;2949;50.778;7.094;2023-04-28T03:54:07;10.60;99.90
5846;DHT22;2949;50.778;7.094;2023-04-28T03:56:33;10.60;99.90
5846;DHT22;2949;50.778;7.094;2023-04-28T03:58:59;10.50;99.90
5846;DHT22;2949;50.778;7.094;2023-04-28T04:01:25;10.40;99.90
5846;DHT22;2949;50.778;7.094;2023-04-28T04:03:50;10.40;99.90
5846;DHT22;2949;50.778;7.094;2023-04-28T04:06:16;10.40;99.90
5846;DHT22;2949;50.778;7.094;2023-04-28T04:08:42;10.40;99.90
5846;DHT22;2949;50.778;7.094;2023-04-28T04:11:07;10.40;99.90
5846;DHT22;2949;50.778;7.094;2023-04-28T04:13:33;10.40;99.90
5846;DHT22;2949;50.778;7.094;2023-04-28T04:15:59;10.40;99.90
5846;DHT22;2949;50.778;7.094;2023-04-28T04:18:25;10.40;99.90
5846;DHT22;2949;50.778;7.094;2023-04-28T04:20:51;10.40;99.90
5846;DHT22;2949;50.778;7.094;2023-04-28T04:23:18;10.40;99.90
5846;DHT22;2949;50.778;7.094;2023-04-28T04:25:43;10.40;99.90
5846;DHT22;2949;50.778;7.094;2023-04-28T04:28:09;10.30;99.90
5846;DHT22;2949;50.778;7.094;2023-04-28T04:30:35;10.40;99.90
5846;DHT22;2949;50.778;7.094;2023-04-28T04:33:00;10.40;99.90
5846;DHT22;2949;50.778;7.094;2023-04-28T04:35:26;10.30;99.90
5846;DHT22;2949;50.778;7.094;2023-04-28T04:37:51;10.30;99.90
5846;DHT22;2949;50.778;7.094;2023-04-28T04:40:17;10.30;99.90
5846;DHT22;2949;50.778;7.094;2023-04-28T04:42:42;10.30;99.90
5846;DHT22;2949;50.778;7.094;2023-04-28T04:45:08;10.30;99.90
5846;DHT22;2949;50.778;7.094;2023-04-28T04:47:34;10.30;99.90
5846;DHT22;2949;50.778;7.094;2023-04-28T04:49:59;10.30;99.90
5846;DHT22;2949;50.778;7.094;2023-04-28T04:52:25;10.30;99.90
5846;DHT22;2949;50.778;7.094;2023-04-28T04:54:50;10.30;99.90
5846;DHT22;2949;50.778;7.094;2023-04-28T04:57:16;10.30;99.90
5846;DHT22;2949;50.778;7.094;2023-04-28T04:59:42;10.20;99.90
5846;DHT22;2949;50.778;7.094;2023-04-28T05:02:07;10.20;99.90
5846;DHT22;2949;50.778;7.094;2023-04-28T05:04:33;10.20;99.90
5846;DHT22;2949;50.778;7.094;2023-04-28T05:06:58;10.20;99.90
5846;DHT22;2949;50.778;7.094;2023-04-28T05:09:24;10.10;99.90
5846;DHT22;2949;50.778;7.094;2023-04-28T05:11:49;10.10;99.90
5846;DHT22;2949;50.778;7.094;2023-04-28T05:14:15;10.10;99.90
5846;DHT22;2949;50.778;7.094;2023-04-28T05:16:41;10.20;99.90
5846;DHT22;2949;50.778;7.094;2023-04-28T05:19:07;10.20;99.90
5846;DHT22;2949;50.778;7.094;2023-04-28T05:21:33;10.20;99.90
5846;DHT22;2949;50.778;7.094;2023-04-28T05:23:58;10.20;99.90
5846;DHT22;2949;50.778;7.094;2023-04-28T05:26:24;10.30;99.90
5846;DHT22;2949;50.778;7.094;2023-04-28T05:28:50;10.20;99.90
5846;DHT22;2949;50.778;7.094;2023-04-28T05:31:16;10.00;99.90
5846;DHT22;2949;50.778;7.094;2023-04-28T05:33:41;9.90;99.90
5846;DHT22;2949;50.778;7.094;2023-04-28T05:36:07;9.80;99.90
5846;DHT22;2949;50.778;7.094;2023-04-28T05:38:33;9.70;99.90
5846;DHT22;2949;50.778;7.094;2023-04-28T05:41:00;9.70;99.90
5846;DHT22;2949;50.778;7.094;2023-04-28T05:43:26;9.70;99.90
5846;DHT22;2949;50.778;7.094;2023-04-28T05:45:51;9.60;99.90
5846;DHT22;2949;50.778;7.094;2023-04-28T05:48:17;9.60;99.90
5846;DHT22;2949;50.778;7.094;2023-04-28T05:50:43;9.60;99.90
5846;DHT22;2949;50.778;7.094;2023-04-28T05:53:08;9.60;99.90
5846;DHT22;2949;50.778;7.094;2023-04-28T05:55:34;9.70;99.90
5846;DHT22;2949;50.778;7.094;2023-04-28T05:58:01;9.70;99.90
5846;DHT22;2949;50.778;7.094;2023-04-28T06:00:27;9.80;99.90
5846;DHT22;2949;50.778;7.094;2023-04-28T06:02:52;9.80;99.90
5846;DHT22;2949;50.778;7.094;2023-04-28T06:05:18;9.90;99.90
5846;DHT22;2949;50.778;7.094;2023-04-28T06:07:43;9.90;99.90
5846;DHT22;2949;50.778;7.094;2023-04-28T06:10:09;10.00;99.90
5846;DHT22;2949;50.778;7.094;2023-04-28T06:12:35;10.00;99.90
5846;DHT22;2949;50.778;7.094;2023-04-28T06:15:02;10.10;99.90
5846;DHT22;2949;50.778;7.094;2023-04-28T06:17:27;10.10;99.90
5846;DHT22;2949;50.778;7.094;2023-04-28T06:19:55;10.20;99.90
5846;DHT22;2949;50.778;7.094;2023-04-28T06:22:23;10.20;99.90
5846;DHT22;2949;50.778;7.094;2023-04-28T06:24:49;10.30;99.90
5846;DHT22;2949;50.778;7.094;2023-04-28T06:27:14;10.50;99.90
5846;DHT22;2949;50.778;7.094;2023-04-28T06:29:40;10.70;99.90
5846;DHT22;2949;50.778;7.094;2023-04-28T06:32:05;10.80;99.90
5846;DHT22;2949;50.778;7.094;2023-04-28T06:34:31;10.90;99.90
5846;DHT22;2949;50.778;7.094;2023-04-28T06:37:00;11.10;99.90
5846;DHT22;2949;50.778;7.094;2023-04-28T06:39:25;11.20;99.90
5846;DHT22;2949;50.778;7.094;2023-04-28T06:41:51;11.20;99.90
5846;DHT22;2949;50.778;7.094;2023-04-28T06:44:16;11.20;99.90
5846;DHT22;2949;50.778;7.094;2023-04-28T06:46:42;11.20;99.90
5846;DHT22;2949;50.778;7.094;2023-04-28T06:49:08;11.40;99.90
5846;DHT22;2949;50.778;7.094;2023-04-28T06:51:33;11.60;99.90
5846;DHT22;2949;50.778;7.094;2023-04-28T06:53:59;11.70;99.90
5846;DHT22;2949;50.778;7.094;2023-04-28T06:56:25;11.80;99.90
5846;DHT22;2949;50.778;7.094;2023-04-28T06:58:51;12.00;99.90
5846;DHT22;2949;50.778;7.094;2023-04-28T07:01:16;12.30;99.90
5846;DHT22;2949;50.778;7.094;2023-04-28T07:03:42;12.50;99.90
5846;DHT22;2949;50.778;7.094;2023-04-28T07:06:07;12.80;99.90
5846;DHT22;2949;50.778;7.094;2023-04-28T07:08:33;12.80;99.90
5846;DHT22;2949;50.778;7.094;2023-04-28T07:10:59;12.90;99.90
5846;DHT22;2949;50.778;7.094;2023-04-28T07:13:29;13.10;99.90
5846;DHT22;2949;50.778;7.094;2023-04-28T07:15:54;13.20;99.90
5846;DHT22;2949;50.778;7.094;2023-04-28T07:18:20;13.30;99.90
5846;DHT22;2949;50.778;7.094;2023-04-28T07:20:45;14.20;99.90
5846;DHT22;2949;50.778;7.094;2023-04-28T07:23:12;15.80;99.90
5846;DHT22;2949;50.778;7.094;2023-04-28T07:25:38;16.90;99.90
5846;DHT22;2949;50.778;7.094;2023-04-28T07:28:05;18.20;99.90
5846;DHT22;2949;50.778;7.094;2023-04-28T07:30:31;18.50;99.90
5846;DHT22;2949;50.778;7.094;2023-04-28T07:32:57;18.10;99.90
5846;DHT22;2949;50.778;7.094;2023-04-28T07:35:22;17.40;99.90
5846;DHT22;2949;50.778;7.094;2023-04-28T07:37:48;16.80;99.90
5846;DHT22;2949;50.778;7.094;2023-04-28T07:40:14;16.10;99.90
5846;DHT22;2949;50.778;7.094;2023-04-28T07:42:40;15.70;99.90
5846;DHT22;2949;50.778;7.094;2023-04-28T07:45:06;15.50;99.90
5846;DHT22;2949;50.778;7.094;2023-04-28T07:47:31;15.40;99.90
5846;DHT22;2949;50.778;7.094;2023-04-28T07:49:57;15.30;99.90
5846;DHT22;2949;50.778;7.094;2023-04-28T07:52:25;15.40;99.90
5846;DHT22;2949;50.778;7.094;2023-04-28T07:54:50;15.40;99.90
5846;DHT22;2949;50.778;7.094;2023-04-28T07:57:16;15.20;99.90
5846;DHT22;2949;50.778;7.094;2023-04-28T07:59:41;15.00;99.90
5846;DHT22;2949;50.778;7.094;2023-04-28T08:02:07;14.90;99.90
5846;DHT22;2949;50.778;7.094;2023-04-28T08:04:32;14.90;99.90
5846;DHT22;2949;50.778;7.094;2023-04-28T08:06:59;14.90;99.90
5846;DHT22;2949;50.778;7.094;2023-04-28T08:09:25;14.90;99.90
5846;DHT22;2949;50.778;7.094;2023-04-28T08:11:50;14.80;99.90
5846;DHT22;2949;50.778;7.094;2023-04-28T08:14:16;14.70;99.90
5846;DHT22;2949;50.778;7.094;2023-04-28T08:16:41;14.70;99.90
5846;DHT22;2949;50.778;7.094;2023-04-28T08:19:07;14.60;99.90
5846;DHT22;2949;50.778;7.094;2023-04-28T08:21:33;14.70;99.90
5846;DHT22;2949;50.778;7.094;2023-04-28T08:23:59;16.20;99.90
5846;DHT22;2949;50.778;7.094;2023-04-28T08:26:24;17.90;99.90
5846;DHT22;2949;50.778;7.094;2023-04-28T08:28:50;18.10;99.90
5846;DHT22;2949;50.778;7.094;2023-04-28T08:31:16;17.70;99.90
5846;DHT22;2949;50.778;7.094;2023-04-28T08:33:42;17.50;99.90
5846;DHT22;2949;50.778;7.094;2023-04-28T08:36:09;17.60;99.90
5846;DHT22;2949;50.778;7.094;2023-04-28T08:38:36;17.60;99.90
5846;DHT22;2949;50.778;7.094;2023-04-28T08:41:06;17.30;99.90
5846;DHT22;2949;50.778;7.094;2023-04-28T08:43:34;17.00;99.90
5846;DHT22;2949;50.778;7.094;2023-04-28T08:46:04;16.90;99.90
5846;DHT22;2949;50.778;7.094;2023-04-28T08:48:37;16.70;99.90
5846;DHT22;2949;50.778;7.094;2023-04-28T08:51:05;16.80;99.90
5846;DHT22;2949;50.778;7.094;2023-04-28T08:53:37;16.80;99.90
5846;DHT22;2949;50.778;7.094;2023-04-28T08:56:05;16.70;99.90
5846;DHT22;2949;50.778;7.094;2023-04-28T08:58:32;16.70;99.90
5846;DHT22;2949;50.778;7.094;2023-04-28T09:00:59;16.50;99.90
5846;DHT22;2949;50.778;7.094;2023-04-28T09:03:29;16.40;99.90
5846;DHT22;2949;50.778;7.094;2023-04-28T09:05:54;16.20;99.90
5846;DHT22;2949;50.778;7.094;2023-04-28T09:08:20;16.10;99.90
5846;DHT22;2949;50.778;7.094;2023-04-28T09:10:46;16.10;99.90
5846;DHT22;2949;50.778;7.094;2023-04-28T09:13:24;16.20;99.90
5846;DHT22;2949;50.778;7.094;2023-04-28T09:15:50;16.10;99.90
5846;DHT22;2949;50.778;7.094;2023-04-28T09:18:16;16.10;99.90
5846;DHT22;2949;50.778;7.094;2023-04-28T09:20:41;15.90;99.90
5846;DHT22;2949;50.778;7.094;2023-04-28T09:23:17;15.80;99.90
5846;DHT22;2949;50.778;7.094;2023-04-28T09:26:05;15.70;99.90
5846;DHT22;2949;50.778;7.094;2023-04-28T09:28:33;15.60;99.90
5846;DHT22;2949;50.778;7.094;2023-04-28T09:30:59;15.60;99.90
5846;DHT22;2949;50.778;7.094;2023-04-28T09:33:24;15.60;99.90
5846;DHT22;2949;50.778;7.094;2023-04-28T09:35:51;15.60;99.90
5846;DHT22;2949;50.778;7.094;2023-04-28T09:38:18;15.70;99.90
5846;DHT22;2949;50.778;7.094;2023-04-28T09:43:33;16.00;99.90
5846;DHT22;2949;50.778;7.094;2023-04-28T09:46:03;16.30;99.90
5846;DHT22;2949;50.778;7.094;2023-04-28T09:48:37;16.70;99.90
5846;DHT22;2949;50.778;7.094;2023-04-28T09:51:04;16.80;99.90
5846;DHT22;2949;50.778;7.094;2023-04-28T09:53:31;16.90;99.90
5846;DHT22;2949;50.778;7.094;2023-04-28T09:55:59;17.00;99.90
5846;DHT22;2949;50.778;7.094;2023-04-28T09:58:26;17.20;99.90
5846;DHT22;2949;50.778;7.094;2023-04-28T10:00:54;17.10;99.90
5846;DHT22;2949;50.778;7.094;2023-04-28T10:03:25;17.00;99.90
5846;DHT22;2949;50.778;7.094;2023-04-28T10:05:51;16.90;99.90
5846;DHT22;2949;50.778;7.094;2023-04-28T10:08:19;16.90;99.90
5846;DHT22;2949;50.778;7.094;2023-04-28T10:10:46;17.00;99.90
5846;DHT22;2949;50.778;7.094;2023-04-28T10:13:14;17.00;99.90
5846;DHT22;2949;50.778;7.094;2023-04-28T10:15:42;17.00;99.90
5846;DHT22;2949;50.778;7.094;2023-04-28T10:18:08;17.00;99.90
5846;DHT22;2949;50.778;7.094;2023-04-28T10:20:33;17.10;99.90
5846;DHT22;2949;50.778;7.094;2023-04-28T10:26:10;17.30;99.90
5846;DHT22;2949;50.778;7.094;2023-04-28T10:28:43;17.40;99.90
5846;DHT22;2949;50.778;7.094;2023-04-28T10:33:39;18.00;99.90
5846;DHT22;2949;50.778;7.094;2023-04-28T10:36:05;18.10;99.90
5846;DHT22;2949;50.778;7.094;2023-04-28T10:38:31;18.40;99.90
5846;DHT22;2949;50.778;7.094;2023-04-28T10:40:57;18.60;99.90
5846;DHT22;2949;50.778;7.094;2023-04-28T10:43:36;18.80;99.90
5846;DHT22;2949;50.778;7.094;2023-04-28T10:46:05;18.90;99.90
5846;DHT22;2949;50.778;7.094;2023-04-28T10:56:22;19.30;99.90
5846;DHT22;2949;50.778;7.094;2023-04-28T10:58:53;19.90;99.90
5846;DHT22;2949;50.778;7.094;2023-04-28T11:08:54;21.50;99.90
5846;DHT22;2949;50.778;7.094;2023-04-28T11:11:26;21.20;99.90
5846;DHT22;2949;50.778;7.094;2023-04-28T11:16:54;20.90;99.90
5846;DHT22;2949;50.778;7.094;2023-04-28T11:19:22;20.70;99.90
5846;DHT22;2949;50.778;7.094;2023-04-28T11:21:54;20.60;99.90
5846;DHT22;2949;50.778;7.094;2023-04-28T11:24:21;20.60;99.90
5846;DHT22;2949;50.778;7.094;2023-04-28T11:26:47;20.30;99.90
5846;DHT22;2949;50.778;7.094;2023-04-28T11:29:13;20.00;99.90
5846;DHT22;2949;50.778;7.094;2023-04-28T11:31:39;19.80;99.90
5846;DHT22;2949;50.778;7.094;2023-04-28T11:34:09;19.60;99.90
5846;DHT22;2949;50.778;7.094;2023-04-28T11:36:44;19.80;99.90
5846;DHT22;2949;50.778;7.094;2023-04-28T11:39:11;20.50;99.90
5846;DHT22;2949;50.778;7.094;2023-04-28T11:41:39;21.10;99.90
5846;DHT22;2949;50.778;7.094;2023-04-28T11:44:12;21.60;99.90
5846;DHT22;2949;50.778;7.094;2023-04-28T11:47:04;22.00;99.90
5846;DHT22;2949;50.778;7.094;2023-04-28T11:49:40;22.50;99.90
5846;DHT22;2949;50.778;7.094;2023-04-28T11:52:07;22.40;99.90
5846;DHT22;2949;50.778;7.094;2023-04-28T11:54:33;22.40;99.90
5846;DHT22;2949;50.778;7.094;2023-04-28T11:56:59;22.50;99.90
5846;DHT22;2949;50.778;7.094;2023-04-28T11:59:33;22.60;99.90
5846;DHT22;2949;50.778;7.094;2023-04-28T12:02:01;22.40;99.90
5846;DHT22;2949;50.778;7.094;2023-04-28T12:04:38;22.40;99.90
5846;DHT22;2949;50.778;7.094;2023-04-28T12:07:10;22.50;99.90
5846;DHT22;2949;50.778;7.094;2023-04-28T12:09:39;22.70;99.90
5846;DHT22;2949;50.778;7.094;2023-04-28T12:12:08;22.80;99.90
5846;DHT22;2949;50.778;7.094;2023-04-28T12:15:02;22.80;99.90
5846;DHT22;2949;50.778;7.094;2023-04-28T12:17:37;22.80;99.90
5846;DHT22;2949;50.778;7.094;2023-04-28T12:20:11;22.40;99.90
5846;DHT22;2949;50.778;7.094;2023-04-28T12:22:49;22.20;99.90
5846;DHT22;2949;50.778;7.094;2023-04-28T12:25:16;22.50;99.90
5846;DHT22;2949;50.778;7.094;2023-04-28T12:28:02;22.70;99.90
5846;DHT22;2949;50.778;7.094;2023-04-28T12:30:29;22.70;99.90
5846;DHT22;2949;50.778;7.094;2023-04-28T12:32:55;22.90;99.90
5846;DHT22;2949;50.778;7.094;2023-04-28T12:35:22;22.90;99.90
5846;DHT22;2949;50.778;7.094;2023-04-28T12:37:48;22.80;99.90
5846;DHT22;2949;50.778;7.094;2023-04-28T12:40:13;22.90;99.90
5846;DHT22;2949;50.778;7.094;2023-04-28T12:42:39;23.10;99.90
5846;DHT22;2949;50.778;7.094;2023-04-28T12:45:06;23.20;99.90
5846;DHT22;2949;50.778;7.094;2023-04-28T12:47:32;23.00;99.90
5846;DHT22;2949;50.778;7.094;2023-04-28T12:49:57;22.70;99.90
5846;DHT22;2949;50.778;7.094;2023-04-28T12:52:23;22.20;99.90
5846;DHT22;2949;50.778;7.094;2023-04-28T12:54:48;22.00;99.90
5846;DHT22;2949;50.778;7.094;2023-04-28T12:57:18;22.20;99.90
5846;DHT22;2949;50.778;7.094;2023-04-28T12:59:46;22.50;99.90
5846;DHT22;2949;50.778;7.094;2023-04-28T13:02:12;22.50;99.90
5846;DHT22;2949;50.778;7.094;2023-04-28T13:04:39;22.30;99.90
5846;DHT22;2949;50.778;7.094;2023-04-28T13:07:07;22.10;99.90
5846;DHT22;2949;50.778;7.094;2023-04-28T13:09:33;22.00;99.90
5846;DHT22;2949;50.778;7.094;2023-04-28T13:11:58;22.10;99.90
5846;DHT22;2949;50.778;7.094;2023-04-28T13:14:25;22.10;99.90
5846;DHT22;2949;50.778;7.094;2023-04-28T13:16:54;22.20;99.90
5846;DHT22;2949;50.778;7.094;2023-04-28T13:19:19;22.40;99.90
5846;DHT22;2949;50.778;7.094;2023-04-28T13:21:45;22.70;99.90
5846;DHT22;2949;50.778;7.094;2023-04-28T13:24:12;23.00;99.90
5846;DHT22;2949;50.778;7.094;2023-04-28T13:26:39;23.00;99.90
5846;DHT22;2949;50.778;7.094;2023-04-28T13:29:04;22.70;99.90
5846;DHT22;2949;50.778;7.094;2023-04-28T13:31:30;22.40;99.90
5846;DHT22;2949;50.778;7.094;2023-04-28T13:33:56;22.40;99.90
5846;DHT22;2949;50.778;7.094;2023-04-28T13:36:22;22.30;99.90
5846;DHT22;2949;50.778;7.094;2023-04-28T13:38:48;22.60;99.90
5846;DHT22;2949;50.778;7.094;2023-04-28T13:41:15;22.80;99.90
5846;DHT22;2949;50.778;7.094;2023-04-28T13:43:41;22.80;99.90
5846;DHT22;2949;50.778;7.094;2023-04-28T13:46:06;22.70;99.90
5846;DHT22;2949;50.778;7.094;2023-04-28T13:48:33;22.70;99.90
5846;DHT22;2949;50.778;7.094;2023-04-28T13:51:00;22.60;99.90
5846;DHT22;2949;50.778;7.094;2023-04-28T13:53:26;22.30;99.90
5846;DHT22;2949;50.778;7.094;2023-04-28T13:55:51;22.00;99.90
5846;DHT22;2949;50.778;7.094;2023-04-28T13:58:18;21.80;99.90
5846;DHT22;2949;50.778;7.094;2023-04-28T14:00:44;21.70;99.90
5846;DHT22;2949;50.778;7.094;2023-04-28T14:03:10;21.60;99.90
5846;DHT22;2949;50.778;7.094;2023-04-28T14:05:36;21.70;99.90
5846;DHT22;2949;50.778;7.094;2023-04-28T14:08:01;21.90;99.90
5846;DHT22;2949;50.778;7.094;2023-04-28T14:10:28;22.10;99.90
5846;DHT22;2949;50.778;7.094;2023-04-28T14:12:53;22.30;99.90
5846;DHT22;2949;50.778;7.094;2023-04-28T14:15:19;22.40;99.90
5846;DHT22;2949;50.778;7.094;2023-04-28T14:17:44;22.50;99.90
5846;DHT22;2949;50.778;7.094;2023-04-28T14:20:10;22.40;99.90
5846;DHT22;2949;50.778;7.094;2023-04-28T14:22:39;22.50;99.90
5846;DHT22;2949;50.778;7.094;2023-04-28T14:25:05;22.50;99.90
5846;DHT22;2949;50.778;7.094;2023-04-28T14:27:31;22.00;99.90
5846;DHT22;2949;50.778;7.094;2023-04-28T14:29:58;21.90;99.90
5846;DHT22;2949;50.778;7.094;2023-04-28T14:32:24;21.80;99.90
5846;DHT22;2949;50.778;7.094;2023-04-28T14:34:50;22.00;99.90
5846;DHT22;2949;50.778;7.094;2023-04-28T14:37:16;22.40;99.90
5846;DHT22;2949;50.778;7.094;2023-04-28T14:39:42;22.90;99.90
5846;DHT22;2949;50.778;7.094;2023-04-28T14:42:08;23.40;99.90
5846;DHT22;2949;50.778;7.094;2023-04-28T14:44:34;23.50;99.90
5846;DHT22;2949;50.778;7.094;2023-04-28T14:47:00;23.30;99.90
5846;DHT22;2949;50.778;7.094;2023-04-28T14:49:26;23.20;99.90
5846;DHT22;2949;50.778;7.094;2023-04-28T14:51:52;23.30;99.90
5846;DHT22;2949;50.778;7.094;2023-04-28T14:54:18;23.10;99.90
5846;DHT22;2949;50.778;7.094;2023-04-28T14:56:44;23.30;99.90
5846;DHT22;2949;50.778;7.094;2023-04-28T14:59:09;23.40;99.90
5846;DHT22;2949;50.778;7.094;2023-04-28T15:01:36;23.50;99.90
5846;DHT22;2949;50.778;7.094;2023-04-28T15:04:01;23.50;99.90
5846;DHT22;2949;50.778;7.094;2023-04-28T15:06:28;23.30;99.90
5846;DHT22;2949;50.778;7.094;2023-04-28T15:08:53;23.30;99.90
5846;DHT22;2949;50.778;7.094;2023-04-28T15:11:19;23.10;99.90
5846;DHT22;2949;50.778;7.094;2023-04-28T15:13:45;22.90;99.90
5846;DHT22;2949;50.778;7.094;2023-04-28T15:16:10;22.80;99.90
5846;DHT22;2949;50.778;7.094;2023-04-28T15:18:36;22.80;99.90
5846;DHT22;2949;50.778;7.094;2023-04-28T15:21:01;22.70;99.90
5846;DHT22;2949;50.778;7.094;2023-04-28T15:23:27;22.60;99.90
5846;DHT22;2949;50.778;7.094;2023-04-28T15:25:53;22.30;99.90
5846;DHT22;2949;50.778;7.094;2023-04-28T15:28:19;22.20;99.90
5846;DHT22;2949;50.778;7.094;2023-04-28T15:30:44;22.20;99.90
5846;DHT22;2949;50.778;7.094;2023-04-28T15:33:10;21.90;99.90
5846;DHT22;2949;50.778;7.094;2023-04-28T15:35:42;21.70;99.90
5846;DHT22;2949;50.778;7.094;2023-04-28T15:38:08;21.80;99.90
5846;DHT22;2949;50.778;7.094;2023-04-28T15:40:36;21.90;99.90
5846;DHT22;2949;50.778;7.094;2023-04-28T15:43:02;21.90;99.90
5846;DHT22;2949;50.778;7.094;2023-04-28T15:45:27;21.70;99.90
5846;DHT22;2949;50.778;7.094;2023-04-28T15:47:53;21.70;99.90
5846;DHT22;2949;50.778;7.094;2023-04-28T15:50:19;21.60;99.90
5846;DHT22;2949;50.778;7.094;2023-04-28T15:52:45;21.50;99.90
5846;DHT22;2949;50.778;7.094;2023-04-28T15:55:13;21.50;99.90
5846;DHT22;2949;50.778;7.094;2023-04-28T15:57:39;21.40;99.90
5846;DHT22;2949;50.778;7.094;2023-04-28T16:00:06;21.50;99.90
5846;DHT22;2949;50.778;7.094;2023-04-28T16:02:33;21.50;99.90
5846;DHT22;2949;50.778;7.094;2023-04-28T16:04:59;21.50;99.90
5846;DHT22;2949;50.778;7.094;2023-04-28T16:07:26;21.50;99.90
5846;DHT22;2949;50.778;7.094;2023-04-28T16:09:52;21.40;99.90
5846;DHT22;2949;50.778;7.094;2023-04-28T16:12:18;21.30;99.90
5846;DHT22;2949;50.778;7.094;2023-04-28T16:14:47;21.20;99.90
5846;DHT22;2949;50.778;7.094;2023-04-28T16:17:13;21.20;99.90
5846;DHT22;2949;50.778;7.094;2023-04-28T16:19:39;21.30;99.90
5846;DHT22;2949;50.778;7.094;2023-04-28T16:22:06;21.30;99.90
5846;DHT22;2949;50.778;7.094;2023-04-28T16:24:32;21.30;99.90